sensor_id;sensor_type;location;lat;lon;timestamp;P1;durP1;ratioP1;P2;durP2;ratioP2
6821;SDS011;3449;48.728;8.968;2023-09-07T00:01:55;7.80;;;5.07;;
6821;SDS011;3449;48.728;8.968;2023-09-07T00:04:22;6.63;;;4.60;;
6821;SDS011;3449;48.728;8.968;2023-09-07T00:06:49;9.90;;;4.37;;
6821;SDS011;3449;48.728;8.968;2023-09-07T00:09:15;7.10;;;4.70;;
6821;SDS011;3449;48.728;8.968;2023-09-07T00:11:43;7.33;;;4.60;;
6821;SDS011;3449;48.728;8.968;2023-09-07T00:14:11;5.80;;;4.40;;
6821;SDS011;3449;48.728;8.968;2023-09-07T00:16:38;7.73;;;4.30;;
6821;SDS011;3449;48.728;8.968;2023-09-07T00:19:05;7.97;;;5.33;;
6821;SDS011;3449;48.728;8.968;2023-09-07T00:21:32;16.90;;;6.07;;
6821;SDS011;3449;48.728;8.968;2023-09-07T00:23:59;7.43;;;5.40;;
6821;SDS011;3449;48.728;8.968;2023-09-07T00:26:30;6.63;;;4.77;;
6821;SDS011;3449;48.728;8.968;2023-09-07T00:28:57;8.63;;;5.30;;
6821;SDS011;3449;48.728;8.968;2023-09-07T00:31:25;8.57;;;5.83;;
6821;SDS011;3449;48.728;8.968;2023-09-07T00:33:52;10.90;;;4.50;;
6821;SDS011;3449;48.728;8.968;2023-09-07T00:36:19;6.50;;;5.47;;
6821;SDS011;3449;48.728;8.968;2023-09-07T00:38:45;7.70;;;5.13;;
6821;SDS011;3449;48.728;8.968;2023-09-07T00:41:12;11.83;;;4.73;;
6821;SDS011;3449;48.728;8.968;2023-09-07T00:43:39;9.60;;;5.13;;
6821;SDS011;3449;48.728;8.968;2023-09-07T00:46:06;6.27;;;4.17;;
6821;SDS011;3449;48.728;8.968;2023-09-07T00:48:35;6.90;;;4.30;;
6821;SDS011;3449;48.728;8.968;2023-09-07T00:51:02;5.60;;;4.73;;
6821;SDS011;3449;48.728;8.968;2023-09-07T00:53:29;6.97;;;4.40;;
6821;SDS011;3449;48.728;8.968;2023-09-07T00:55:56;5.03;;;4.43;;
6821;SDS011;3449;48.728;8.968;2023-09-07T00:58:24;7.80;;;4.60;;
6821;SDS011;3449;48.728;8.968;2023-09-07T01:00:52;4.43;;;4.03;;
6821;SDS011;3449;48.728;8.968;2023-09-07T01:03:19;7.57;;;4.47;;
6821;SDS011;3449;48.728;8.968;2023-09-07T01:05:50;7.23;;;5.23;;
6821;SDS011;3449;48.728;8.968;2023-09-07T01:08:21;4.60;;;4.07;;
6821;SDS011;3449;48.728;8.968;2023-09-07T01:10:50;4.30;;;3.70;;
6821;SDS011;3449;48.728;8.968;2023-09-07T01:13:18;9.30;;;4.50;;
6821;SDS011;3449;48.728;8.968;2023-09-07T01:15:45;6.40;;;4.27;;
6821;SDS011;3449;48.728;8.968;2023-09-07T01:18:12;9.83;;;3.93;;
6821;SDS011;3449;48.728;8.968;2023-09-07T01:20:40;13.60;;;4.60;;
6821;SDS011;3449;48.728;8.968;2023-09-07T01:23:09;8.60;;;4.90;;
6821;SDS011;3449;48.728;8.968;2023-09-07T01:25:37;6.40;;;4.73;;
6821;SDS011;3449;48.728;8.968;2023-09-07T01:28:06;7.07;;;3.97;;
6821;SDS011;3449;48.728;8.968;2023-09-07T01:30:34;6.40;;;4.10;;
6821;SDS011;3449;48.728;8.968;2023-09-07T01:33:02;8.83;;;4.47;;
6821;SDS011;3449;48.728;8.968;2023-09-07T01:35:30;5.43;;;3.97;;
6821;SDS011;3449;48.728;8.968;2023-09-07T01:37:59;8.73;;;3.67;;
6821;SDS011;3449;48.728;8.968;2023-09-07T01:40:27;5.33;;;3.27;;
6821;SDS011;3449;48.728;8.968;2023-09-07T01:42:55;6.33;;;4.33;;
6821;SDS011;3449;48.728;8.968;2023-09-07T01:45:21;9.03;;;4.80;;
6821;SDS011;3449;48.728;8.968;2023-09-07T01:47:49;12.20;;;3.57;;
6821;SDS011;3449;48.728;8.968;2023-09-07T01:50:17;5.53;;;4.03;;
6821;SDS011;3449;48.728;8.968;2023-09-07T01:52:45;5.40;;;3.67;;
6821;SDS011;3449;48.728;8.968;2023-09-07T01:55:13;4.67;;;3.73;;
6821;SDS011;3449;48.728;8.968;2023-09-07T01:57:41;4.00;;;3.60;;
6821;SDS011;3449;48.728;8.968;2023-09-07T02:00:09;5.53;;;3.87;;
6821;SDS011;3449;48.728;8.968;2023-09-07T02:02:37;9.57;;;4.40;;
6821;SDS011;3449;48.728;8.968;2023-09-07T02:05:04;9.10;;;4.50;;
6821;SDS011;3449;48.728;8.968;2023-09-07T02:07:31;5.90;;;4.90;;
6821;SDS011;3449;48.728;8.968;2023-09-07T02:09:58;6.73;;;4.93;;
6821;SDS011;3449;48.728;8.968;2023-09-07T02:12:25;6.20;;;4.57;;
6821;SDS011;3449;48.728;8.968;2023-09-07T02:14:53;7.00;;;4.50;;
6821;SDS011;3449;48.728;8.968;2023-09-07T02:17:20;7.00;;;3.97;;
6821;SDS011;3449;48.728;8.968;2023-09-07T02:19:47;6.23;;;4.50;;
6821;SDS011;3449;48.728;8.968;2023-09-07T02:22:15;6.93;;;5.03;;
6821;SDS011;3449;48.728;8.968;2023-09-07T02:24:42;5.37;;;4.20;;
6821;SDS011;3449;48.728;8.968;2023-09-07T02:27:09;5.77;;;4.70;;
6821;SDS011;3449;48.728;8.968;2023-09-07T02:29:35;7.70;;;3.80;;
6821;SDS011;3449;48.728;8.968;2023-09-07T02:32:04;7.70;;;4.97;;
6821;SDS011;3449;48.728;8.968;2023-09-07T02:34:32;4.90;;;4.10;;
6821;SDS011;3449;48.728;8.968;2023-09-07T02:37:01;5.70;;;4.33;;
6821;SDS011;3449;48.728;8.968;2023-09-07T02:39:28;9.50;;;4.87;;
6821;SDS011;3449;48.728;8.968;2023-09-07T02:41:54;10.10;;;4.60;;
6821;SDS011;3449;48.728;8.968;2023-09-07T02:44:21;6.47;;;4.57;;
6821;SDS011;3449;48.728;8.968;2023-09-07T02:46:48;6.43;;;4.33;;
6821;SDS011;3449;48.728;8.968;2023-09-07T02:49:16;6.70;;;4.70;;
6821;SDS011;3449;48.728;8.968;2023-09-07T02:51:43;9.23;;;4.53;;
6821;SDS011;3449;48.728;8.968;2023-09-07T02:54:10;7.23;;;4.47;;
6821;SDS011;3449;48.728;8.968;2023-09-07T02:56:36;5.40;;;4.10;;
6821;SDS011;3449;48.728;8.968;2023-09-07T02:59:03;8.03;;;5.20;;
6821;SDS011;3449;48.728;8.968;2023-09-07T03:01:30;5.40;;;4.83;;
6821;SDS011;3449;48.728;8.968;2023-09-07T03:03:57;5.97;;;4.90;;
6821;SDS011;3449;48.728;8.968;2023-09-07T03:06:25;5.70;;;4.53;;
6821;SDS011;3449;48.728;8.968;2023-09-07T03:08:52;5.03;;;3.90;;
6821;SDS011;3449;48.728;8.968;2023-09-07T03:11:19;6.20;;;4.07;;
6821;SDS011;3449;48.728;8.968;2023-09-07T03:13:45;6.63;;;4.20;;
6821;SDS011;3449;48.728;8.968;2023-09-07T03:16:12;5.67;;;4.30;;
6821;SDS011;3449;48.728;8.968;2023-09-07T03:18:39;5.63;;;3.87;;
6821;SDS011;3449;48.728;8.968;2023-09-07T03:21:06;5.60;;;4.13;;
6821;SDS011;3449;48.728;8.968;2023-09-07T03:23:35;5.80;;;4.20;;
6821;SDS011;3449;48.728;8.968;2023-09-07T03:26:02;4.93;;;3.90;;
6821;SDS011;3449;48.728;8.968;2023-09-07T03:28:28;5.20;;;3.80;;
6821;SDS011;3449;48.728;8.968;2023-09-07T03:30:55;7.73;;;4.43;;
6821;SDS011;3449;48.728;8.968;2023-09-07T03:33:22;5.63;;;4.70;;
6821;SDS011;3449;48.728;8.968;2023-09-07T03:35:49;6.47;;;4.70;;
6821;SDS011;3449;48.728;8.968;2023-09-07T03:38:16;6.10;;;4.50;;
6821;SDS011;3449;48.728;8.968;2023-09-07T03:40:45;4.67;;;4.10;;
6821;SDS011;3449;48.728;8.968;2023-09-07T03:43:11;8.53;;;4.50;;
6821;SDS011;3449;48.728;8.968;2023-09-07T03:45:38;5.00;;;3.70;;
6821;SDS011;3449;48.728;8.968;2023-09-07T03:48:05;6.63;;;3.90;;
6821;SDS011;3449;48.728;8.968;2023-09-07T03:50:34;4.43;;;4.03;;
6821;SDS011;3449;48.728;8.968;2023-09-07T03:53:01;7.70;;;4.27;;
6821;SDS011;3449;48.728;8.968;2023-09-07T03:55:29;4.73;;;4.23;;
6821;SDS011;3449;48.728;8.968;2023-09-07T03:57:57;7.37;;;4.43;;
6821;SDS011;3449;48.728;8.968;2023-09-07T04:00:23;7.50;;;4.47;;
6821;SDS011;3449;48.728;8.968;2023-09-07T04:02:50;7.83;;;4.33;;
6821;SDS011;3449;48.728;8.968;2023-09-07T04:05:17;5.90;;;4.30;;
6821;SDS011;3449;48.728;8.968;2023-09-07T04:07:44;6.57;;;4.27;;
6821;SDS011;3449;48.728;8.968;2023-09-07T04:10:11;8.03;;;4.97;;
6821;SDS011;3449;48.728;8.968;2023-09-07T04:12:38;4.97;;;4.03;;
6821;SDS011;3449;48.728;8.968;2023-09-07T04:15:07;5.50;;;4.40;;
6821;SDS011;3449;48.728;8.968;2023-09-07T04:17:34;15.67;;;5.13;;
6821;SDS011;3449;48.728;8.968;2023-09-07T04:20:05;7.33;;;4.63;;
6821;SDS011;3449;48.728;8.968;2023-09-07T04:22:34;6.20;;;4.37;;
6821;SDS011;3449;48.728;8.968;2023-09-07T04:25:01;5.63;;;4.00;;
6821;SDS011;3449;48.728;8.968;2023-09-07T04:27:27;8.10;;;5.47;;
6821;SDS011;3449;48.728;8.968;2023-09-07T04:29:54;8.57;;;5.73;;
6821;SDS011;3449;48.728;8.968;2023-09-07T04:32:22;6.53;;;5.00;;
6821;SDS011;3449;48.728;8.968;2023-09-07T04:34:52;7.57;;;5.07;;
6821;SDS011;3449;48.728;8.968;2023-09-07T04:37:20;7.63;;;5.03;;
6821;SDS011;3449;48.728;8.968;2023-09-07T04:39:49;5.70;;;4.77;;
6821;SDS011;3449;48.728;8.968;2023-09-07T04:42:17;12.57;;;5.83;;
6821;SDS011;3449;48.728;8.968;2023-09-07T04:44:43;7.10;;;5.03;;
6821;SDS011;3449;48.728;8.968;2023-09-07T04:47:10;8.90;;;4.73;;
6821;SDS011;3449;48.728;8.968;2023-09-07T04:49:38;5.97;;;5.37;;
6821;SDS011;3449;48.728;8.968;2023-09-07T04:52:05;6.30;;;4.50;;
6821;SDS011;3449;48.728;8.968;2023-09-07T04:54:34;5.97;;;4.30;;
6821;SDS011;3449;48.728;8.968;2023-09-07T04:57:00;11.00;;;6.07;;
6821;SDS011;3449;48.728;8.968;2023-09-07T04:59:27;13.03;;;5.87;;
6821;SDS011;3449;48.728;8.968;2023-09-07T05:01:54;10.13;;;6.27;;
6821;SDS011;3449;48.728;8.968;2023-09-07T05:04:24;10.77;;;6.10;;
6821;SDS011;3449;48.728;8.968;2023-09-07T05:06:52;10.27;;;5.67;;
6821;SDS011;3449;48.728;8.968;2023-09-07T05:09:19;12.10;;;6.33;;
6821;SDS011;3449;48.728;8.968;2023-09-07T05:11:46;9.57;;;5.77;;
6821;SDS011;3449;48.728;8.968;2023-09-07T05:14:13;14.43;;;5.87;;
6821;SDS011;3449;48.728;8.968;2023-09-07T05:16:41;8.13;;;5.50;;
6821;SDS011;3449;48.728;8.968;2023-09-07T05:19:08;7.47;;;4.67;;
6821;SDS011;3449;48.728;8.968;2023-09-07T05:21:35;10.80;;;5.37;;
6821;SDS011;3449;48.728;8.968;2023-09-07T05:24:04;7.63;;;5.23;;
6821;SDS011;3449;48.728;8.968;2023-09-07T05:26:31;9.27;;;5.97;;
6821;SDS011;3449;48.728;8.968;2023-09-07T05:28:57;9.43;;;5.50;;
6821;SDS011;3449;48.728;8.968;2023-09-07T05:31:24;6.77;;;5.10;;
6821;SDS011;3449;48.728;8.968;2023-09-07T05:33:52;10.80;;;5.63;;
6821;SDS011;3449;48.728;8.968;2023-09-07T05:36:18;11.30;;;5.10;;
6821;SDS011;3449;48.728;8.968;2023-09-07T05:38:45;8.90;;;5.73;;
6821;SDS011;3449;48.728;8.968;2023-09-07T05:41:13;8.20;;;5.73;;
6821;SDS011;3449;48.728;8.968;2023-09-07T05:43:40;7.63;;;4.90;;
6821;SDS011;3449;48.728;8.968;2023-09-07T05:46:07;7.83;;;5.23;;
6821;SDS011;3449;48.728;8.968;2023-09-07T05:48:34;5.87;;;4.80;;
6821;SDS011;3449;48.728;8.968;2023-09-07T05:51:01;4.97;;;4.40;;
6821;SDS011;3449;48.728;8.968;2023-09-07T05:53:28;5.50;;;4.80;;
6821;SDS011;3449;48.728;8.968;2023-09-07T05:55:55;10.10;;;4.90;;
6821;SDS011;3449;48.728;8.968;2023-09-07T05:58:23;7.70;;;5.53;;
6821;SDS011;3449;48.728;8.968;2023-09-07T06:00:50;8.30;;;4.77;;
6821;SDS011;3449;48.728;8.968;2023-09-07T06:03:17;7.03;;;5.47;;
6821;SDS011;3449;48.728;8.968;2023-09-07T06:05:44;5.10;;;4.37;;
6821;SDS011;3449;48.728;8.968;2023-09-07T06:08:11;9.50;;;5.20;;
6821;SDS011;3449;48.728;8.968;2023-09-07T06:10:38;11.90;;;5.00;;
6821;SDS011;3449;48.728;8.968;2023-09-07T06:13:05;5.53;;;4.40;;
6821;SDS011;3449;48.728;8.968;2023-09-07T06:15:33;6.83;;;4.30;;
6821;SDS011;3449;48.728;8.968;2023-09-07T06:18:00;5.40;;;4.53;;
6821;SDS011;3449;48.728;8.968;2023-09-07T06:20:27;5.67;;;4.50;;
6821;SDS011;3449;48.728;8.968;2023-09-07T06:22:54;6.70;;;4.67;;
6821;SDS011;3449;48.728;8.968;2023-09-07T06:25:21;7.10;;;3.93;;
6821;SDS011;3449;48.728;8.968;2023-09-07T06:27:48;6.63;;;4.73;;
6821;SDS011;3449;48.728;8.968;2023-09-07T06:30:15;7.20;;;4.80;;
6821;SDS011;3449;48.728;8.968;2023-09-07T06:32:43;7.30;;;5.23;;
6821;SDS011;3449;48.728;8.968;2023-09-07T06:35:12;10.17;;;5.93;;
6821;SDS011;3449;48.728;8.968;2023-09-07T06:37:39;9.73;;;5.63;;
6821;SDS011;3449;48.728;8.968;2023-09-07T06:40:08;7.00;;;4.97;;
6821;SDS011;3449;48.728;8.968;2023-09-07T06:42:36;12.30;;;5.60;;
6821;SDS011;3449;48.728;8.968;2023-09-07T06:45:03;8.00;;;5.33;;
6821;SDS011;3449;48.728;8.968;2023-09-07T06:47:30;8.53;;;4.90;;
6821;SDS011;3449;48.728;8.968;2023-09-07T06:49:59;12.13;;;5.53;;
6821;SDS011;3449;48.728;8.968;2023-09-07T06:52:26;8.77;;;5.03;;
6821;SDS011;3449;48.728;8.968;2023-09-07T06:54:53;10.67;;;4.93;;
6821;SDS011;3449;48.728;8.968;2023-09-07T06:57:20;12.20;;;6.00;;
6821;SDS011;3449;48.728;8.968;2023-09-07T06:59:47;11.13;;;5.17;;
6821;SDS011;3449;48.728;8.968;2023-09-07T07:02:14;10.20;;;5.50;;
6821;SDS011;3449;48.728;8.968;2023-09-07T07:04:41;8.17;;;5.90;;
6821;SDS011;3449;48.728;8.968;2023-09-07T07:07:10;13.80;;;5.77;;
6821;SDS011;3449;48.728;8.968;2023-09-07T07:09:37;10.07;;;6.10;;
6821;SDS011;3449;48.728;8.968;2023-09-07T07:12:04;9.83;;;4.93;;
6821;SDS011;3449;48.728;8.968;2023-09-07T07:14:31;12.33;;;5.50;;
6821;SDS011;3449;48.728;8.968;2023-09-07T07:16:58;10.33;;;5.40;;
6821;SDS011;3449;48.728;8.968;2023-09-07T07:19:26;7.37;;;5.10;;
6821;SDS011;3449;48.728;8.968;2023-09-07T07:21:53;8.10;;;4.73;;
6821;SDS011;3449;48.728;8.968;2023-09-07T07:24:22;11.97;;;5.03;;
6821;SDS011;3449;48.728;8.968;2023-09-07T07:26:49;5.53;;;4.97;;
6821;SDS011;3449;48.728;8.968;2023-09-07T07:29:15;9.03;;;5.20;;
6821;SDS011;3449;48.728;8.968;2023-09-07T07:31:42;6.90;;;5.90;;
6821;SDS011;3449;48.728;8.968;2023-09-07T07:34:09;6.87;;;4.93;;
6821;SDS011;3449;48.728;8.968;2023-09-07T07:36:36;9.37;;;4.80;;
6821;SDS011;3449;48.728;8.968;2023-09-07T07:39:03;10.07;;;4.73;;
6821;SDS011;3449;48.728;8.968;2023-09-07T07:41:33;15.27;;;5.03;;
6821;SDS011;3449;48.728;8.968;2023-09-07T07:44:00;5.23;;;3.97;;
6821;SDS011;3449;48.728;8.968;2023-09-07T07:46:28;10.87;;;6.10;;
6821;SDS011;3449;48.728;8.968;2023-09-07T07:48:54;5.10;;;4.50;;
6821;SDS011;3449;48.728;8.968;2023-09-07T07:51:21;6.23;;;4.37;;
6821;SDS011;3449;48.728;8.968;2023-09-07T07:53:48;6.47;;;4.77;;
6821;SDS011;3449;48.728;8.968;2023-09-07T07:56:15;7.90;;;4.50;;
6821;SDS011;3449;48.728;8.968;2023-09-07T07:58:43;6.47;;;4.90;;
6821;SDS011;3449;48.728;8.968;2023-09-07T08:01:14;5.30;;;4.27;;
6821;SDS011;3449;48.728;8.968;2023-09-07T08:03:41;6.17;;;4.17;;
6821;SDS011;3449;48.728;8.968;2023-09-07T08:06:08;6.77;;;4.10;;
6821;SDS011;3449;48.728;8.968;2023-09-07T08:08:35;6.10;;;4.50;;
6821;SDS011;3449;48.728;8.968;2023-09-07T08:11:02;6.83;;;4.27;;
6821;SDS011;3449;48.728;8.968;2023-09-07T08:13:31;6.73;;;4.50;;
6821;SDS011;3449;48.728;8.968;2023-09-07T08:16:00;6.60;;;4.50;;
6821;SDS011;3449;48.728;8.968;2023-09-07T08:18:27;7.50;;;4.50;;
6821;SDS011;3449;48.728;8.968;2023-09-07T08:20:55;6.07;;;4.17;;
6821;SDS011;3449;48.728;8.968;2023-09-07T08:23:22;6.67;;;3.73;;
6821;SDS011;3449;48.728;8.968;2023-09-07T08:25:50;5.10;;;4.30;;
6821;SDS011;3449;48.728;8.968;2023-09-07T08:28:17;8.43;;;4.30;;
6821;SDS011;3449;48.728;8.968;2023-09-07T08:30:45;7.63;;;4.63;;
6821;SDS011;3449;48.728;8.968;2023-09-07T08:33:15;6.50;;;3.67;;
6821;SDS011;3449;48.728;8.968;2023-09-07T08:35:42;6.30;;;4.40;;
6821;SDS011;3449;48.728;8.968;2023-09-07T08:38:10;5.60;;;4.23;;
6821;SDS011;3449;48.728;8.968;2023-09-07T08:40:37;4.63;;;3.70;;
6821;SDS011;3449;48.728;8.968;2023-09-07T08:43:08;7.60;;;4.40;;
6821;SDS011;3449;48.728;8.968;2023-09-07T08:45:37;9.37;;;5.03;;
6821;SDS011;3449;48.728;8.968;2023-09-07T08:48:09;6.40;;;4.13;;
6821;SDS011;3449;48.728;8.968;2023-09-07T08:50:39;5.57;;;3.53;;
6821;SDS011;3449;48.728;8.968;2023-09-07T08:53:07;5.67;;;4.20;;
6821;SDS011;3449;48.728;8.968;2023-09-07T08:55:35;5.73;;;4.23;;
6821;SDS011;3449;48.728;8.968;2023-09-07T08:58:02;4.83;;;3.83;;
6821;SDS011;3449;48.728;8.968;2023-09-07T09:00:29;4.07;;;3.77;;
6821;SDS011;3449;48.728;8.968;2023-09-07T09:02:56;5.73;;;4.00;;
6821;SDS011;3449;48.728;8.968;2023-09-07T09:05:23;6.80;;;4.40;;
6821;SDS011;3449;48.728;8.968;2023-09-07T09:08:01;4.17;;;3.70;;
6821;SDS011;3449;48.728;8.968;2023-09-07T09:10:29;6.20;;;3.80;;
6821;SDS011;3449;48.728;8.968;2023-09-07T09:12:56;5.80;;;4.77;;
6821;SDS011;3449;48.728;8.968;2023-09-07T09:15:24;9.90;;;4.20;;
6821;SDS011;3449;48.728;8.968;2023-09-07T09:17:52;6.10;;;4.50;;
6821;SDS011;3449;48.728;8.968;2023-09-07T09:20:19;10.10;;;4.77;;
6821;SDS011;3449;48.728;8.968;2023-09-07T09:22:50;3.70;;;3.40;;
6821;SDS011;3449;48.728;8.968;2023-09-07T09:25:19;3.93;;;3.53;;
6821;SDS011;3449;48.728;8.968;2023-09-07T09:27:46;4.23;;;3.83;;
6821;SDS011;3449;48.728;8.968;2023-09-07T09:30:13;5.10;;;4.60;;
6821;SDS011;3449;48.728;8.968;2023-09-07T09:32:41;4.77;;;3.73;;
6821;SDS011;3449;48.728;8.968;2023-09-07T09:35:08;6.20;;;4.30;;
6821;SDS011;3449;48.728;8.968;2023-09-07T09:37:43;5.30;;;3.40;;
6821;SDS011;3449;48.728;8.968;2023-09-07T09:40:11;4.50;;;4.10;;
6821;SDS011;3449;48.728;8.968;2023-09-07T09:42:40;13.23;;;4.37;;
6821;SDS011;3449;48.728;8.968;2023-09-07T09:45:09;4.70;;;3.93;;
6821;SDS011;3449;48.728;8.968;2023-09-07T09:47:38;6.00;;;3.63;;
6821;SDS011;3449;48.728;8.968;2023-09-07T09:50:06;4.07;;;3.63;;
6821;SDS011;3449;48.728;8.968;2023-09-07T09:52:34;7.03;;;4.30;;
6821;SDS011;3449;48.728;8.968;2023-09-07T09:55:02;7.87;;;4.80;;
6821;SDS011;3449;48.728;8.968;2023-09-07T09:57:32;4.20;;;3.80;;
6821;SDS011;3449;48.728;8.968;2023-09-07T10:00:01;4.13;;;3.73;;
6821;SDS011;3449;48.728;8.968;2023-09-07T10:02:44;4.57;;;4.23;;
6821;SDS011;3449;48.728;8.968;2023-09-07T10:05:15;6.97;;;3.83;;
6821;SDS011;3449;48.728;8.968;2023-09-07T10:07:42;3.93;;;3.63;;
6821;SDS011;3449;48.728;8.968;2023-09-07T10:10:10;4.63;;;4.23;;
6821;SDS011;3449;48.728;8.968;2023-09-07T10:12:41;6.83;;;4.30;;
6821;SDS011;3449;48.728;8.968;2023-09-07T10:18:02;4.83;;;3.77;;
6821;SDS011;3449;48.728;8.968;2023-09-07T10:20:34;4.37;;;3.87;;
6821;SDS011;3449;48.728;8.968;2023-09-07T10:23:12;3.50;;;3.30;;
6821;SDS011;3449;48.728;8.968;2023-09-07T10:25:39;5.40;;;3.90;;
6821;SDS011;3449;48.728;8.968;2023-09-07T10:28:16;5.60;;;4.10;;
6821;SDS011;3449;48.728;8.968;2023-09-07T10:30:45;3.50;;;3.03;;
6821;SDS011;3449;48.728;8.968;2023-09-07T10:33:24;4.20;;;3.70;;
6821;SDS011;3449;48.728;8.968;2023-09-07T10:35:51;6.83;;;4.00;;
6821;SDS011;3449;48.728;8.968;2023-09-07T10:38:18;4.23;;;3.83;;
6821;SDS011;3449;48.728;8.968;2023-09-07T10:40:45;2.80;;;2.60;;
6821;SDS011;3449;48.728;8.968;2023-09-07T10:43:12;6.77;;;3.80;;
6821;SDS011;3449;48.728;8.968;2023-09-07T10:45:38;4.80;;;3.80;;
6821;SDS011;3449;48.728;8.968;2023-09-07T10:48:07;5.80;;;4.00;;
6821;SDS011;3449;48.728;8.968;2023-09-07T10:50:41;5.70;;;3.77;;
6821;SDS011;3449;48.728;8.968;2023-09-07T10:53:09;4.83;;;4.33;;
6821;SDS011;3449;48.728;8.968;2023-09-07T10:55:37;3.57;;;3.17;;
6821;SDS011;3449;48.728;8.968;2023-09-07T10:58:05;3.97;;;3.60;;
6821;SDS011;3449;48.728;8.968;2023-09-07T11:00:32;7.13;;;3.07;;
6821;SDS011;3449;48.728;8.968;2023-09-07T11:02:59;4.60;;;3.37;;
6821;SDS011;3449;48.728;8.968;2023-09-07T11:05:27;4.20;;;3.30;;
6821;SDS011;3449;48.728;8.968;2023-09-07T11:07:54;5.97;;;3.33;;
6821;SDS011;3449;48.728;8.968;2023-09-07T11:10:25;4.00;;;3.60;;
6821;SDS011;3449;48.728;8.968;2023-09-07T11:12:53;3.90;;;3.13;;
6821;SDS011;3449;48.728;8.968;2023-09-07T11:15:20;6.97;;;3.50;;
6821;SDS011;3449;48.728;8.968;2023-09-07T11:17:47;5.17;;;3.77;;
6821;SDS011;3449;48.728;8.968;2023-09-07T11:20:20;4.93;;;3.90;;
6821;SDS011;3449;48.728;8.968;2023-09-07T11:22:49;3.80;;;3.50;;
6821;SDS011;3449;48.728;8.968;2023-09-07T11:25:16;10.10;;;3.50;;
6821;SDS011;3449;48.728;8.968;2023-09-07T11:27:42;6.93;;;3.97;;
6821;SDS011;3449;48.728;8.968;2023-09-07T11:30:10;5.33;;;3.40;;
6821;SDS011;3449;48.728;8.968;2023-09-07T11:32:37;3.50;;;3.20;;
6821;SDS011;3449;48.728;8.968;2023-09-07T11:35:06;6.40;;;3.87;;
6821;SDS011;3449;48.728;8.968;2023-09-07T11:37:33;4.37;;;3.97;;
6821;SDS011;3449;48.728;8.968;2023-09-07T11:40:01;4.43;;;3.70;;
6821;SDS011;3449;48.728;8.968;2023-09-07T11:42:36;4.13;;;3.47;;
6821;SDS011;3449;48.728;8.968;2023-09-07T11:45:03;4.60;;;3.40;;
6821;SDS011;3449;48.728;8.968;2023-09-07T11:47:31;4.37;;;3.43;;
6821;SDS011;3449;48.728;8.968;2023-09-07T11:49:59;7.17;;;3.83;;
6821;SDS011;3449;48.728;8.968;2023-09-07T11:52:26;3.57;;;3.27;;
6821;SDS011;3449;48.728;8.968;2023-09-07T11:54:53;4.73;;;3.50;;
6821;SDS011;3449;48.728;8.968;2023-09-07T11:57:21;4.43;;;3.83;;
6821;SDS011;3449;48.728;8.968;2023-09-07T11:59:48;5.90;;;3.77;;
6821;SDS011;3449;48.728;8.968;2023-09-07T12:02:33;4.73;;;4.03;;
6821;SDS011;3449;48.728;8.968;2023-09-07T12:04:59;4.37;;;3.77;;
6821;SDS011;3449;48.728;8.968;2023-09-07T12:07:28;4.90;;;3.83;;
6821;SDS011;3449;48.728;8.968;2023-09-07T12:09:55;3.53;;;3.23;;
6821;SDS011;3449;48.728;8.968;2023-09-07T12:12:24;4.03;;;3.63;;
6821;SDS011;3449;48.728;8.968;2023-09-07T12:14:51;4.43;;;3.53;;
6821;SDS011;3449;48.728;8.968;2023-09-07T12:17:17;5.40;;;4.10;;
6821;SDS011;3449;48.728;8.968;2023-09-07T12:19:44;5.20;;;4.10;;
6821;SDS011;3449;48.728;8.968;2023-09-07T12:22:12;3.70;;;3.20;;
6821;SDS011;3449;48.728;8.968;2023-09-07T12:24:39;5.33;;;3.53;;
6821;SDS011;3449;48.728;8.968;2023-09-07T12:27:05;5.33;;;3.10;;
6821;SDS011;3449;48.728;8.968;2023-09-07T12:29:34;5.57;;;3.60;;
6821;SDS011;3449;48.728;8.968;2023-09-07T12:32:00;4.50;;;3.60;;
6821;SDS011;3449;48.728;8.968;2023-09-07T12:34:27;3.93;;;3.53;;
6821;SDS011;3449;48.728;8.968;2023-09-07T12:36:54;7.07;;;3.83;;
6821;SDS011;3449;48.728;8.968;2023-09-07T12:39:21;10.07;;;4.50;;
6821;SDS011;3449;48.728;8.968;2023-09-07T12:41:48;3.90;;;3.13;;
6821;SDS011;3449;48.728;8.968;2023-09-07T12:44:16;3.70;;;3.20;;
6821;SDS011;3449;48.728;8.968;2023-09-07T12:46:47;12.73;;;4.40;;
6821;SDS011;3449;48.728;8.968;2023-09-07T12:49:14;4.90;;;3.70;;
6821;SDS011;3449;48.728;8.968;2023-09-07T12:51:41;3.50;;;3.13;;
6821;SDS011;3449;48.728;8.968;2023-09-07T12:54:07;5.03;;;3.90;;
6821;SDS011;3449;48.728;8.968;2023-09-07T12:56:34;4.60;;;3.07;;
6821;SDS011;3449;48.728;8.968;2023-09-07T12:59:01;11.50;;;3.80;;
6821;SDS011;3449;48.728;8.968;2023-09-07T13:01:28;4.03;;;3.70;;
6821;SDS011;3449;48.728;8.968;2023-09-07T13:03:57;4.60;;;4.17;;
6821;SDS011;3449;48.728;8.968;2023-09-07T13:06:24;6.63;;;4.20;;
6821;SDS011;3449;48.728;8.968;2023-09-07T13:08:51;4.33;;;3.70;;
6821;SDS011;3449;48.728;8.968;2023-09-07T13:11:18;3.70;;;3.40;;
6821;SDS011;3449;48.728;8.968;2023-09-07T13:13:44;4.70;;;3.67;;
6821;SDS011;3449;48.728;8.968;2023-09-07T13:16:11;6.80;;;3.63;;
6821;SDS011;3449;48.728;8.968;2023-09-07T13:18:39;6.30;;;4.77;;
6821;SDS011;3449;48.728;8.968;2023-09-07T13:21:08;6.80;;;3.90;;
6821;SDS011;3449;48.728;8.968;2023-09-07T13:23:35;4.57;;;3.90;;
6821;SDS011;3449;48.728;8.968;2023-09-07T13:26:02;5.57;;;4.00;;
6821;SDS011;3449;48.728;8.968;2023-09-07T13:28:29;6.00;;;4.23;;
6821;SDS011;3449;48.728;8.968;2023-09-07T13:30:56;7.00;;;5.00;;
6821;SDS011;3449;48.728;8.968;2023-09-07T13:33:22;4.60;;;4.10;;
6821;SDS011;3449;48.728;8.968;2023-09-07T13:35:50;12.40;;;3.90;;
6821;SDS011;3449;48.728;8.968;2023-09-07T13:38:18;5.30;;;4.00;;
6821;SDS011;3449;48.728;8.968;2023-09-07T13:40:45;3.80;;;3.50;;
6821;SDS011;3449;48.728;8.968;2023-09-07T13:43:12;4.00;;;3.60;;
6821;SDS011;3449;48.728;8.968;2023-09-07T13:45:39;8.70;;;3.90;;
6821;SDS011;3449;48.728;8.968;2023-09-07T13:48:06;6.10;;;3.70;;
6821;SDS011;3449;48.728;8.968;2023-09-07T13:50:32;3.80;;;3.20;;
6821;SDS011;3449;48.728;8.968;2023-09-07T13:52:59;4.67;;;3.87;;
6821;SDS011;3449;48.728;8.968;2023-09-07T13:55:27;3.60;;;3.30;;
6821;SDS011;3449;48.728;8.968;2023-09-07T13:57:54;3.50;;;3.20;;
6821;SDS011;3449;48.728;8.968;2023-09-07T14:00:21;4.33;;;3.60;;
6821;SDS011;3449;48.728;8.968;2023-09-07T14:02:48;3.57;;;3.27;;
6821;SDS011;3449;48.728;8.968;2023-09-07T14:05:15;4.03;;;2.93;;
6821;SDS011;3449;48.728;8.968;2023-09-07T14:07:42;3.10;;;2.80;;
6821;SDS011;3449;48.728;8.968;2023-09-07T14:10:09;5.30;;;3.70;;
6821;SDS011;3449;48.728;8.968;2023-09-07T14:12:37;4.90;;;3.03;;
6821;SDS011;3449;48.728;8.968;2023-09-07T14:15:04;4.43;;;3.10;;
6821;SDS011;3449;48.728;8.968;2023-09-07T14:17:31;3.17;;;2.80;;
6821;SDS011;3449;48.728;8.968;2023-09-07T14:19:58;5.83;;;3.60;;
6821;SDS011;3449;48.728;8.968;2023-09-07T14:22:25;3.23;;;2.93;;
6821;SDS011;3449;48.728;8.968;2023-09-07T14:24:52;3.50;;;3.20;;
6821;SDS011;3449;48.728;8.968;2023-09-07T14:27:19;3.90;;;3.50;;
6821;SDS011;3449;48.728;8.968;2023-09-07T14:29:47;4.47;;;3.30;;
6821;SDS011;3449;48.728;8.968;2023-09-07T14:32:14;3.40;;;3.17;;
6821;SDS011;3449;48.728;8.968;2023-09-07T14:34:40;7.10;;;3.40;;
6821;SDS011;3449;48.728;8.968;2023-09-07T14:37:07;3.50;;;3.20;;
6821;SDS011;3449;48.728;8.968;2023-09-07T14:39:34;2.67;;;2.47;;
6821;SDS011;3449;48.728;8.968;2023-09-07T14:42:01;3.17;;;2.93;;
6821;SDS011;3449;48.728;8.968;2023-09-07T14:44:31;3.37;;;3.07;;
6821;SDS011;3449;48.728;8.968;2023-09-07T14:46:59;2.93;;;2.73;;
6821;SDS011;3449;48.728;8.968;2023-09-07T14:49:26;6.73;;;3.33;;
6821;SDS011;3449;48.728;8.968;2023-09-07T14:51:52;4.10;;;2.43;;
6821;SDS011;3449;48.728;8.968;2023-09-07T14:54:19;3.73;;;2.90;;
6821;SDS011;3449;48.728;8.968;2023-09-07T14:56:46;4.50;;;3.10;;
6821;SDS011;3449;48.728;8.968;2023-09-07T14:59:13;6.57;;;2.80;;
6821;SDS011;3449;48.728;8.968;2023-09-07T15:01:40;4.10;;;2.97;;
6821;SDS011;3449;48.728;8.968;2023-09-07T15:04:09;3.33;;;2.63;;
6821;SDS011;3449;48.728;8.968;2023-09-07T15:06:36;3.13;;;2.83;;
6821;SDS011;3449;48.728;8.968;2023-09-07T15:09:03;3.80;;;3.10;;
6821;SDS011;3449;48.728;8.968;2023-09-07T15:11:30;3.00;;;2.80;;
6821;SDS011;3449;48.728;8.968;2023-09-07T15:13:57;3.70;;;3.40;;
6821;SDS011;3449;48.728;8.968;2023-09-07T15:16:24;3.97;;;3.20;;
6821;SDS011;3449;48.728;8.968;2023-09-07T15:18:51;2.63;;;2.43;;
6821;SDS011;3449;48.728;8.968;2023-09-07T15:21:19;3.13;;;2.47;;